createdAt,value
2018-09-04T00:01:09.079Z,16.70
2018-09-04T00:03:37.619Z,16.60
2018-09-04T00:06:06.731Z,16.70
2018-09-04T00:08:35.225Z,16.60
2018-09-04T00:11:04.019Z,16.60
2018-09-04T00:13:32.613Z,16.50
2018-09-04T00:16:05.917Z,16.60
2018-09-04T00:18:34.425Z,16.60
2018-09-04T00:21:02.938Z,16.60
2018-09-04T00:23:31.449Z,16.50
2018-09-04T00:25:59.947Z,16.50
2018-09-04T00:28:28.448Z,16.40
2018-09-04T00:30:57.747Z,16.30
2018-09-04T00:33:26.278Z,16.30
2018-09-04T00:35:54.791Z,16.40
2018-09-04T00:38:23.306Z,16.40
2018-09-04T00:40:51.787Z,16.40
2018-09-04T00:43:20.339Z,16.30
2018-09-04T00:45:48.883Z,16.30
2018-09-04T00:48:17.417Z,16.20
2018-09-04T00:50:45.913Z,16.30
2018-09-04T00:58:10.832Z,16.30
2018-09-04T01:00:39.770Z,16.30
2018-09-04T01:03:08.295Z,16.30
2018-09-04T01:05:36.849Z,16.30
2018-09-04T01:08:05.369Z,16.20
2018-09-04T01:10:33.844Z,16.20
2018-09-04T01:13:02.385Z,16.20
2018-09-04T01:15:30.902Z,16.20
2018-09-04T01:17:59.431Z,16.10
2018-09-04T01:20:28.282Z,16.10
2018-09-04T01:22:56.774Z,16.00
2018-09-04T01:25:25.321Z,16.00
2018-09-04T01:27:54.603Z,16.10
2018-09-04T01:30:23.181Z,16.10
2018-09-04T01:32:51.746Z,16.10
2018-09-04T01:35:20.325Z,16.10
2018-09-04T01:37:48.810Z,16.10
2018-09-04T01:40:17.815Z,16.10
2018-09-04T01:42:46.659Z,16.10
2018-09-04T01:50:15.210Z,16.10
2018-09-04T01:52:43.746Z,16.10
2018-09-04T01:55:12.840Z,16.10
2018-09-04T01:57:42.078Z,16.10
2018-09-04T02:00:11.339Z,16.10
2018-09-04T02:02:39.939Z,16.10
2018-09-04T02:05:09.018Z,16.10
2018-09-04T02:07:37.531Z,16.20
2018-09-04T02:10:06.457Z,16.10
2018-09-04T02:12:34.969Z,16.20
2018-09-04T02:15:03.543Z,16.10
2018-09-04T02:17:32.042Z,16.00
2018-09-04T02:20:00.552Z,15.90
2018-09-04T02:22:29.110Z,16.00
2018-09-04T02:24:57.595Z,15.90
2018-09-04T02:27:26.578Z,15.90
2018-09-04T02:29:55.078Z,15.80
2018-09-04T02:32:23.558Z,15.80
2018-09-04T02:34:52.082Z,15.80
2018-09-04T02:37:20.558Z,15.80
2018-09-04T02:39:49.042Z,15.80
2018-09-04T02:42:17.622Z,15.80
2018-09-04T02:44:46.098Z,15.80
2018-09-04T02:52:10.048Z,15.70
2018-09-04T02:54:38.737Z,15.70
2018-09-04T02:57:07.673Z,15.80
2018-09-04T02:59:36.184Z,15.70
2018-09-04T03:02:04.726Z,15.70
2018-09-04T03:04:34.019Z,15.80
2018-09-04T03:07:02.918Z,15.80
2018-09-04T03:09:31.411Z,15.80
2018-09-04T03:11:59.883Z,15.80
2018-09-04T03:14:28.621Z,15.80
2018-09-04T03:16:57.087Z,15.80
2018-09-04T03:19:25.553Z,15.90
2018-09-04T03:21:54.079Z,15.90
2018-09-04T03:24:22.563Z,16.00
2018-09-04T03:26:51.034Z,15.90
2018-09-04T03:29:19.534Z,15.80
2018-09-04T03:31:48.014Z,15.90
2018-09-04T03:34:17.410Z,15.80
2018-09-04T03:36:46.594Z,15.80
2018-09-04T03:44:15.016Z,15.80
2018-09-04T03:46:43.494Z,15.60
2018-09-04T03:49:11.967Z,15.60
2018-09-04T03:51:40.534Z,15.60
2018-09-04T03:54:09.034Z,15.50
2018-09-04T03:56:37.518Z,15.60
2018-09-04T03:59:06.916Z,15.70
2018-09-04T04:01:35.436Z,15.70
2018-09-04T04:04:03.910Z,15.70
2018-09-04T04:06:32.438Z,15.60
2018-09-04T04:09:00.926Z,15.70
2018-09-04T04:11:29.419Z,15.60
2018-09-04T04:13:57.974Z,15.60
2018-09-04T04:16:26.461Z,15.60
2018-09-04T04:18:54.958Z,15.50
2018-09-04T04:21:23.840Z,15.50
2018-09-04T04:23:52.423Z,15.50
2018-09-04T04:26:20.850Z,15.40
2018-09-04T04:28:49.445Z,15.40
2018-09-04T04:31:17.953Z,15.50
2018-09-04T04:33:46.433Z,15.50
2018-09-04T04:41:11.715Z,15.50
2018-09-04T04:43:40.204Z,15.50
2018-09-04T04:46:08.685Z,15.50
2018-09-04T04:48:37.195Z,15.50
2018-09-04T04:51:06.034Z,15.60
2018-09-04T04:53:34.510Z,15.60
2018-09-04T04:56:03.038Z,15.60
2018-09-04T04:58:31.541Z,15.60
2018-09-04T05:01:01.894Z,15.60
2018-09-04T05:03:30.882Z,15.50
2018-09-04T05:05:59.369Z,15.50
2018-09-04T05:08:27.848Z,15.50
2018-09-04T05:10:56.809Z,15.50
2018-09-04T05:13:25.324Z,15.40
2018-09-04T05:15:53.826Z,15.40
2018-09-04T05:18:22.387Z,15.50
2018-09-04T05:20:50.917Z,15.50
2018-09-04T05:23:19.382Z,15.60
2018-09-04T05:25:48.383Z,15.60
2018-09-04T05:28:17.444Z,15.70
2018-09-04T05:30:46.516Z,15.60
2018-09-04T05:38:15.173Z,15.50
2018-09-04T05:40:43.746Z,15.40
2018-09-04T05:43:15.119Z,15.40
2018-09-04T05:45:44.613Z,15.40
2018-09-04T05:48:14.821Z,15.40
2018-09-04T05:50:43.366Z,15.30
2018-09-04T05:53:11.962Z,15.30
2018-09-04T05:55:40.490Z,15.30
2018-09-04T05:58:08.966Z,15.40
2018-09-04T06:00:42.646Z,15.50
2018-09-04T06:03:12.262Z,15.50
2018-09-04T06:05:40.729Z,15.60
2018-09-04T06:08:09.717Z,15.60
2018-09-04T06:10:38.237Z,15.60
2018-09-04T06:13:06.749Z,15.60
2018-09-04T06:15:35.280Z,15.60
2018-09-04T06:18:03.783Z,15.60
2018-09-04T06:20:32.277Z,15.70
2018-09-04T06:23:00.846Z,15.70
2018-09-04T06:25:29.323Z,15.60
2018-09-04T06:28:04.342Z,15.70
2018-09-04T06:30:32.910Z,15.70
2018-09-04T06:33:01.415Z,15.80
2018-09-04T06:35:29.926Z,15.80
2018-09-04T06:37:58.435Z,15.70
2018-09-04T06:40:26.954Z,15.70
2018-09-04T06:42:55.480Z,15.70
2018-09-04T06:45:23.978Z,15.70
2018-09-04T06:47:52.454Z,15.70
2018-09-04T06:50:21.194Z,15.60
2018-09-04T06:52:49.698Z,15.60
2018-09-04T06:55:19.971Z,15.50
2018-09-04T06:57:48.481Z,15.40
2018-09-04T07:00:17.407Z,15.50
2018-09-04T07:02:46.392Z,15.60
2018-09-04T07:10:15.496Z,15.60
2018-09-04T07:12:44.003Z,15.60
2018-09-04T07:15:12.498Z,15.60
2018-09-04T07:17:41.045Z,15.60
2018-09-04T07:20:09.567Z,15.60
2018-09-04T07:22:38.133Z,15.80
2018-09-04T07:25:07.698Z,16.00
2018-09-04T07:27:36.635Z,16.00
2018-09-04T07:30:05.623Z,16.10
2018-09-04T07:32:34.739Z,16.10
2018-09-04T07:35:03.621Z,16.20
2018-09-04T07:37:32.098Z,16.10
2018-09-04T07:40:00.627Z,16.00
2018-09-04T07:42:30.341Z,16.10
2018-09-04T07:44:58.823Z,16.10
2018-09-04T07:47:27.792Z,16.10
2018-09-04T07:49:56.735Z,16.00
2018-09-04T07:52:25.271Z,15.90
2018-09-04T07:54:54.128Z,15.90
2018-09-04T07:57:22.638Z,15.90
2018-09-04T07:59:51.391Z,15.80
2018-09-04T08:02:19.931Z,15.70
2018-09-04T08:04:48.406Z,15.80
2018-09-04T08:07:18.266Z,15.70
2018-09-04T08:09:46.956Z,15.90
2018-09-04T08:17:11.831Z,15.80
2018-09-04T08:19:40.342Z,15.80
2018-09-04T08:22:08.854Z,15.70
2018-09-04T08:24:37.381Z,15.90
2018-09-04T08:27:05.915Z,15.90
2018-09-04T08:29:34.402Z,16.00
2018-09-04T08:32:02.934Z,16.00
2018-09-04T08:34:31.415Z,16.00
2018-09-04T08:36:59.906Z,15.90
2018-09-04T08:39:28.947Z,16.10
2018-09-04T08:41:57.838Z,16.00
2018-09-04T08:44:26.322Z,16.20
2018-09-04T08:46:54.875Z,16.20
2018-09-04T08:49:24.901Z,16.20
2018-09-04T08:51:53.374Z,16.10
2018-09-04T08:54:21.913Z,16.00
2018-09-04T08:56:50.390Z,16.00
2018-09-04T08:59:18.931Z,16.00
2018-09-04T09:01:48.041Z,16.10
2018-09-04T09:04:17.434Z,16.10
2018-09-04T09:06:45.918Z,16.10
2018-09-04T09:14:15.707Z,16.00
2018-09-04T09:16:44.242Z,15.80
2018-09-04T09:19:12.741Z,15.90
2018-09-04T09:21:41.715Z,15.90
2018-09-04T09:24:10.257Z,16.00
2018-09-04T09:26:38.782Z,16.10
2018-09-04T09:29:08.102Z,16.20
2018-09-04T09:31:37.916Z,16.20
2018-09-04T09:34:07.196Z,16.10
2018-09-04T09:36:35.804Z,16.20
2018-09-04T09:39:05.053Z,16.30
2018-09-04T09:41:33.579Z,16.30
2018-09-04T09:44:02.761Z,16.30
2018-09-04T09:46:31.339Z,16.30
2018-09-04T09:48:59.826Z,16.20
2018-09-04T09:51:28.351Z,16.30
2018-09-04T09:53:56.854Z,16.20
2018-09-04T09:56:25.475Z,16.30
2018-09-04T09:58:54.745Z,16.30
2018-09-04T10:01:28.609Z,16.30
2018-09-04T10:04:02.989Z,16.40
2018-09-04T10:06:31.833Z,16.30
2018-09-04T10:09:00.307Z,16.20
2018-09-04T10:11:29.598Z,16.20
2018-09-04T10:13:58.117Z,16.30
2018-09-04T10:16:27.958Z,16.30
2018-09-04T10:18:56.534Z,16.40
2018-09-04T10:21:25.075Z,16.40
2018-09-04T10:23:53.546Z,16.50
2018-09-04T10:26:22.593Z,16.50
2018-09-04T10:28:51.069Z,16.50
2018-09-04T10:31:19.719Z,16.50
2018-09-04T10:33:48.198Z,16.50
2018-09-04T10:36:17.407Z,16.50
2018-09-04T10:38:45.882Z,16.70
2018-09-04T10:51:08.713Z,16.70
2018-09-04T10:53:37.201Z,16.60
2018-09-04T10:56:05.718Z,16.70
2018-09-04T10:58:34.293Z,16.70
2018-09-04T11:01:02.859Z,16.80
2018-09-04T11:03:31.734Z,16.90
2018-09-04T11:06:01.124Z,16.90
2018-09-04T11:08:30.032Z,16.90
2018-09-04T11:10:58.521Z,16.90
2018-09-04T11:13:29.254Z,16.90
2018-09-04T11:15:57.807Z,17.00
2018-09-04T11:18:26.333Z,17.10
2018-09-04T11:20:54.890Z,17.20
2018-09-04T11:23:23.422Z,17.20
2018-09-04T11:25:51.918Z,17.20
2018-09-04T11:28:20.453Z,17.40
2018-09-04T11:30:49.050Z,17.50
2018-09-04T11:33:17.486Z,17.70
2018-09-04T11:35:46.802Z,17.80
2018-09-04T11:43:14.742Z,17.90
2018-09-04T11:45:43.734Z,17.90
2018-09-04T11:48:19.417Z,17.90
2018-09-04T11:50:48.650Z,17.80
2018-09-04T11:53:18.411Z,17.90
2018-09-04T11:55:48.769Z,18.00
2018-09-04T11:58:17.458Z,18.10
2018-09-04T12:00:47.415Z,18.30
2018-09-04T12:03:17.694Z,18.40
2018-09-04T12:05:46.239Z,18.70
2018-09-04T12:13:11.413Z,19.30
2018-09-04T12:15:41.145Z,19.10
2018-09-04T12:18:10.504Z,19.10
2018-09-04T12:20:41.852Z,19.30
2018-09-04T12:23:10.466Z,19.40
2018-09-04T12:25:40.315Z,19.50
2018-09-04T12:28:08.858Z,19.70
2018-09-04T12:30:37.378Z,19.90
2018-09-04T12:33:06.024Z,20.10
2018-09-04T12:35:35.502Z,20.20
2018-09-04T12:38:04.567Z,20.10
2018-09-04T12:40:33.590Z,20.00
2018-09-04T12:43:03.399Z,19.80
2018-09-04T12:45:37.298Z,19.70
2018-09-04T12:48:06.808Z,19.60
2018-09-04T12:50:35.772Z,19.50
2018-09-04T12:53:04.358Z,19.70
2018-09-04T12:55:33.589Z,19.80
2018-09-04T12:58:02.198Z,20.00
2018-09-04T13:00:30.718Z,20.00
2018-09-04T13:02:59.238Z,20.30
2018-09-04T13:05:27.747Z,20.40
2018-09-04T13:07:56.262Z,20.50
2018-09-04T13:10:24.800Z,20.60
2018-09-04T13:12:54.247Z,20.90
2018-09-04T13:15:23.793Z,21.10
2018-09-04T13:17:53.295Z,21.20
2018-09-04T13:20:21.790Z,21.50
2018-09-04T13:22:50.317Z,21.50
2018-09-04T13:25:18.831Z,21.70
2018-09-04T13:27:47.318Z,21.60
2018-09-04T13:35:11.757Z,21.60
2018-09-04T13:37:40.247Z,21.10
2018-09-04T13:40:08.820Z,21.20
2018-09-04T13:42:37.394Z,21.30
2018-09-04T13:45:05.967Z,21.30
2018-09-04T13:47:35.254Z,21.20
2018-09-04T13:50:03.819Z,21.20
2018-09-04T13:52:32.876Z,21.40
2018-09-04T13:55:01.378Z,21.40
2018-09-04T13:57:30.732Z,21.40
2018-09-04T14:00:00.190Z,21.10
2018-09-04T14:02:28.698Z,20.90
2018-09-04T14:04:57.719Z,20.90
2018-09-04T14:07:26.227Z,21.00
2018-09-04T14:09:54.742Z,21.10
2018-09-04T14:12:23.585Z,21.10
2018-09-04T14:14:52.421Z,21.30
2018-09-04T14:17:21.250Z,21.50
2018-09-04T14:19:51.138Z,21.60
2018-09-04T14:22:19.674Z,21.60
2018-09-04T14:24:48.126Z,21.60
2018-09-04T14:27:17.460Z,21.40
2018-09-04T14:29:53.776Z,21.20
2018-09-04T14:37:54.189Z,20.80
2018-09-04T14:40:22.717Z,20.70
2018-09-04T14:42:51.314Z,20.80
2018-09-04T14:45:20.179Z,20.70
2018-09-04T14:47:48.703Z,20.70
2018-09-04T14:50:17.434Z,20.70
2018-09-04T14:52:45.972Z,20.90
2018-09-04T15:00:10.758Z,21.00
2018-09-04T15:02:39.257Z,20.90
2018-09-04T15:05:07.749Z,20.90
2018-09-04T15:07:36.279Z,21.00
2018-09-04T15:10:05.812Z,21.10
2018-09-04T15:12:34.314Z,20.90
2018-09-04T15:15:03.018Z,20.80
2018-09-04T15:17:31.534Z,20.80
2018-09-04T15:20:00.627Z,20.60
2018-09-04T15:22:29.236Z,20.70
2018-09-04T15:24:57.750Z,20.60
2018-09-04T15:27:26.261Z,20.50
2018-09-04T15:29:54.784Z,20.40
2018-09-04T15:32:23.266Z,20.40
2018-09-04T15:34:52.291Z,20.30
2018-09-04T15:37:20.884Z,20.30
2018-09-04T15:39:49.358Z,20.30
2018-09-04T15:42:17.863Z,20.40
2018-09-04T15:44:46.822Z,20.40
2018-09-04T15:52:14.130Z,20.40
2018-09-04T15:54:42.690Z,20.40
2018-09-04T15:57:11.629Z,20.30
2018-09-04T15:59:40.211Z,20.30
2018-09-04T16:02:08.785Z,20.20
2018-09-04T16:04:37.294Z,20.20
2018-09-04T16:07:06.562Z,20.20
2018-09-04T16:09:35.163Z,20.30
2018-09-04T16:12:03.602Z,20.30
2018-09-04T16:14:32.126Z,20.30
2018-09-04T16:17:00.676Z,20.30
2018-09-04T16:19:29.174Z,20.40
2018-09-04T16:21:58.585Z,20.40
2018-09-04T16:24:27.090Z,20.40
2018-09-04T16:26:55.593Z,20.40
2018-09-04T16:29:24.694Z,20.10
2018-09-04T16:31:53.355Z,20.10
2018-09-04T16:34:21.980Z,20.20
2018-09-04T16:36:51.175Z,20.20
2018-09-04T16:39:19.964Z,20.20
2018-09-04T16:41:48.499Z,20.20
2018-09-04T16:44:17.950Z,20.20
2018-09-04T16:46:46.502Z,20.20
2018-09-04T16:54:15.465Z,20.20
2018-09-04T16:56:43.961Z,20.20
2018-09-04T16:59:12.494Z,20.10
2018-09-04T17:01:41.017Z,20.00
2018-09-04T17:04:09.578Z,20.00
2018-09-04T17:06:38.497Z,19.90
2018-09-04T17:09:07.453Z,19.90
2018-09-04T17:11:36.319Z,19.90
2018-09-04T17:14:04.997Z,19.90
2018-09-04T17:16:34.290Z,19.80
2018-09-04T17:19:02.770Z,19.80
2018-09-04T17:21:31.259Z,19.70
2018-09-04T17:24:00.384Z,19.70
2018-09-04T17:26:28.954Z,19.50
2018-09-04T17:28:57.503Z,19.50
2018-09-04T17:31:26.026Z,19.50
2018-09-04T17:33:54.563Z,19.30
2018-09-04T17:36:23.026Z,19.40
2018-09-04T17:38:52.158Z,19.30
2018-09-04T17:41:20.685Z,19.30
2018-09-04T17:43:49.243Z,19.20
2018-09-04T17:46:18.578Z,19.20
2018-09-04T17:48:47.071Z,19.20
2018-09-04T17:51:17.409Z,19.10
2018-09-04T17:53:45.949Z,19.10
2018-09-04T18:01:15.133Z,19.10
2018-09-04T18:03:44.036Z,18.90
2018-09-04T18:06:12.553Z,18.90
2018-09-04T18:08:41.078Z,18.80
2018-09-04T18:11:09.607Z,18.80
2018-09-04T18:13:38.173Z,18.70
2018-09-04T18:16:06.706Z,18.60
2018-09-04T18:18:35.226Z,18.60
2018-09-04T18:21:03.726Z,18.60
2018-09-04T18:23:32.760Z,18.50
2018-09-04T18:26:02.243Z,18.50
2018-09-04T18:28:30.719Z,18.50
2018-09-04T18:30:59.257Z,18.40
2018-09-04T18:33:27.746Z,18.40
2018-09-04T18:35:56.506Z,18.40
2018-09-04T18:38:25.116Z,18.30
2018-09-04T18:40:53.626Z,18.30
2018-09-04T18:43:22.115Z,18.20
2018-09-04T18:45:53.906Z,18.20
2018-09-04T18:48:22.410Z,18.10
2018-09-04T18:50:50.910Z,18.00
2018-09-04T18:53:19.421Z,18.00
2018-09-04T18:55:47.965Z,18.00
2018-09-04T18:58:17.383Z,18.00
2018-09-04T19:00:46.473Z,17.90
2018-09-04T19:08:15.134Z,17.90
2018-09-04T19:10:43.798Z,17.80
2018-09-04T19:13:12.298Z,17.80
2018-09-04T19:15:40.845Z,17.80
2018-09-04T19:18:09.334Z,17.70
2018-09-04T19:20:37.830Z,17.70
2018-09-04T19:23:06.389Z,17.70
2018-09-04T19:25:34.905Z,17.60
2018-09-04T19:28:04.261Z,17.60
2018-09-04T19:30:33.115Z,17.60
2018-09-04T19:33:01.863Z,17.60
2018-09-04T19:35:30.383Z,17.60
2018-09-04T19:37:58.902Z,17.60
2018-09-04T19:40:27.598Z,17.60
2018-09-04T19:42:56.098Z,17.60
2018-09-04T19:45:24.699Z,17.60
2018-09-04T19:47:53.191Z,17.70
2018-09-04T19:50:21.745Z,17.60
2018-09-04T19:52:51.260Z,17.60
2018-09-04T19:55:19.793Z,17.60
2018-09-04T19:57:48.245Z,17.60
2018-09-04T20:00:19.014Z,17.60
2018-09-04T20:02:47.944Z,17.50
2018-09-04T20:10:11.938Z,17.50
2018-09-04T20:12:40.437Z,17.50
2018-09-04T20:15:09.541Z,17.50
2018-09-04T20:17:38.059Z,17.40
2018-09-04T20:20:06.836Z,17.50
2018-09-04T20:22:35.358Z,17.40
2018-09-04T20:25:03.877Z,17.40
2018-09-04T20:27:32.397Z,17.40
2018-09-04T20:30:01.640Z,17.50
2018-09-04T20:32:30.752Z,17.40
2018-09-04T20:34:59.209Z,17.30
2018-09-04T20:37:27.754Z,17.20
2018-09-04T20:39:56.279Z,17.30
2018-09-04T20:42:24.822Z,17.30
2018-09-04T20:44:53.434Z,17.30
2018-09-04T20:47:23.196Z,17.30
2018-09-04T20:49:51.686Z,17.30
2018-09-04T20:52:20.189Z,17.40
2018-09-04T20:54:48.877Z,17.30
2018-09-04T20:57:28.354Z,17.30
2018-09-04T21:00:09.340Z,17.30
2018-09-04T21:02:49.180Z,17.30
2018-09-04T21:05:29.266Z,17.30
2018-09-04T21:08:11.148Z,17.30
2018-09-04T21:10:40.586Z,17.30
2018-09-04T21:13:09.511Z,17.30
2018-09-04T21:15:38.006Z,17.30
2018-09-04T21:18:06.612Z,17.30
2018-09-04T21:20:35.093Z,17.30
2018-09-04T21:23:03.761Z,17.30
2018-09-04T21:25:32.296Z,17.30
2018-09-04T21:28:01.257Z,17.30
2018-09-04T21:30:30.761Z,17.20
2018-09-04T21:32:59.778Z,17.20
2018-09-04T21:35:28.303Z,17.20
2018-09-04T21:37:56.847Z,17.10
2018-09-04T21:40:25.442Z,17.20
2018-09-04T21:42:53.933Z,17.10
2018-09-04T21:45:22.412Z,17.00
2018-09-04T21:47:51.034Z,16.90
2018-09-04T21:50:19.487Z,16.80
2018-09-04T21:52:48.025Z,16.90
2018-09-04T21:55:18.390Z,16.90
2018-09-04T21:57:46.859Z,16.80
2018-09-04T22:05:11.250Z,16.70
2018-09-04T22:07:39.763Z,16.80
2018-09-04T22:10:08.392Z,16.80
2018-09-04T22:12:37.537Z,16.80
2018-09-04T22:15:06.074Z,16.80
2018-09-04T22:17:34.598Z,16.90
2018-09-04T22:20:03.129Z,16.90
2018-09-04T22:22:31.638Z,16.90
2018-09-04T22:25:00.178Z,16.90
2018-09-04T22:27:28.728Z,17.00
2018-09-04T22:29:57.259Z,17.00
2018-09-04T22:32:26.680Z,17.00
2018-09-04T22:34:55.793Z,16.90
2018-09-04T22:37:24.278Z,16.90
2018-09-04T22:39:52.802Z,16.90
2018-09-04T22:42:21.349Z,16.90
2018-09-04T22:44:49.874Z,16.70
2018-09-04T22:47:18.362Z,16.70
2018-09-04T22:49:52.152Z,16.60
2018-09-04T22:52:24.842Z,16.50
2018-09-04T22:54:57.365Z,16.50
2018-09-04T22:57:25.890Z,16.50
2018-09-04T22:59:54.393Z,16.50
2018-09-04T23:02:23.670Z,16.50
2018-09-04T23:04:52.219Z,16.50
2018-09-04T23:07:20.710Z,16.50
2018-09-04T23:09:49.261Z,16.40
2018-09-04T23:12:17.798Z,16.40
2018-09-04T23:14:46.611Z,16.40
2018-09-04T23:23:33.378Z,16.50
2018-09-04T23:26:01.885Z,16.40
2018-09-04T23:28:30.415Z,16.40
2018-09-04T23:30:59.002Z,16.40
2018-09-04T23:33:28.805Z,16.30
2018-09-04T23:35:57.357Z,16.30
2018-09-04T23:38:25.889Z,16.30
2018-09-04T23:40:54.394Z,16.30
2018-09-04T23:43:22.930Z,16.30
2018-09-04T23:45:51.951Z,16.30
2018-09-04T23:48:20.429Z,16.30
2018-09-04T23:50:48.934Z,16.30
2018-09-04T23:53:18.734Z,16.30
2018-09-04T23:55:47.764Z,16.20
2018-09-04T23:58:17.347Z,16.20
